Terminal Aerodrome Forecast
Issued by NWS Sterling, VA

Current Version | Previous Version | Graphics & Text | Print | Product List | Glossary On
Versions: 1 2 3 4 5 6 7 8 9 10 11 12 13 14 15 16 17 18 19 20 21 22 23 24 25 26 27
000
FTUS41 KLWX 190855 AAB
TAFIAD
TAF AMD
KIAD 190855Z 1909/2012 00000KT 3SM BR SCT003 OVC060
     FM191300 30005KT P6SM OVC050
     FM191800 27006KT P6SM VCTS SCT050CB BKN200
     FM192100 28008KT P6SM BKN050
     FM200100 29007KT P6SM FEW250=

USA.gov is the U.S. government's official web portal to all federal, state and local government web resources and services.